Time;durP1;ratioP1;P1;durP2;ratioP2;P2;SDS_P1;SDS_P2;PMS_P1;PMS_P2;Temp;Humidity;BMP_temperature;BMP_pressure;BME280_temperature;BME280_humidity;BME280_pressure;Samples;Min_cycle;Max_cycle;Signal;HPM_P1;HPM_P2
2022/10/04 00:00:46;;;;;;;;;;;;;;;11.56;100.00;-25391.38;4995096;28;20514;-77
2022/10/04 00:03:17;;;;;;;;;;;;;;;11.54;100.00;-25390.78;4995637;28;19917;-76
2022/10/04 00:05:47;;;;;;;;;;;;;;;11.50;100.00;-25389.75;4995085;28;19995;-76
2022/10/04 00:08:19;;;;;;;;;;;;;;;11.52;100.00;-25390.19;4995542;28;19922;-80
2022/10/04 00:10:44;;;;;;;;;;;;;;;11.53;100.00;-25390.63;4996212;28;20366;-83
2022/10/04 00:13:24;;;;;;;;;;;;;;;11.56;100.00;-25391.53;4995681;28;20020;-83
2022/10/04 00:15:49;;;;;;;;;;;;;;;11.56;100.00;-25391.38;5007928;28;20009;-75
2022/10/04 00:18:27;;;;;;;;;;;;;;;11.61;100.00;-25392.84;5009059;28;20008;-77
2022/10/04 00:20:52;;;;;;;;;;;;;;;11.63;100.00;-25393.41;5010138;28;19913;-75
2022/10/04 00:23:30;;;;;;;;;;;;;;;11.58;100.00;-25391.97;5014192;28;20281;-77
2022/10/04 00:26:15;;;;;;;;;;;;;;;11.61;100.00;-25392.84;5014688;28;19913;-78
2022/10/04 00:28:42;;;;;;;;;;;;;;;11.61;100.00;-25392.84;5020547;28;20462;-78
2022/10/04 00:31:12;;;;;;;;;;;;;;;11.58;100.00;-25392.09;5000813;28;19913;-77
2022/10/04 00:33:48;;;;;;;;;;;;;;;11.59;100.00;-25392.41;5013984;28;20023;-77
2022/10/04 00:36:22;;;;;;;;;;;;;;;11.57;100.00;-25391.66;5031399;28;19960;-74
2022/10/04 00:39:13;;;;;;;;;;;;;;;11.57;100.00;-25391.66;5010947;28;19964;-76
2022/10/04 00:41:47;;;;;;;;;;;;;;;11.58;100.00;-25391.97;5014215;28;19949;-76
2022/10/04 00:44:22;;;;;;;;;;;;;;;11.55;100.00;-25391.22;5009471;28;19940;-78
2022/10/04 00:46:48;;;;;;;;;;;;;;;11.52;100.00;-25390.34;4994807;28;19917;-81
2022/10/04 00:49:16;;;;;;;;;;;;;;;11.46;100.00;-25388.72;5004865;28;19916;-80
2022/10/04 00:51:43;;;;;;;;;;;;;;;11.46;100.00;-25388.59;5013350;28;19963;-78
2022/10/04 00:54:17;;;;;;;;;;;;;;;11.43;100.00;-25387.84;5016770;28;19964;-77
2022/10/04 00:56:42;;;;;;;;;;;;;;;11.41;100.00;-25387.28;5017974;28;20007;-76
2022/10/04 00:59:15;;;;;;;;;;;;;;;11.39;100.00;-25386.53;5001297;28;19960;-77
2022/10/04 01:01:43;;;;;;;;;;;;;;;11.35;100.00;-25385.50;5016882;28;20400;-76
2022/10/04 01:04:23;;;;;;;;;;;;;;;11.31;100.00;-25384.34;5005075;28;20004;-76
2022/10/04 01:06:48;;;;;;;;;;;;;;;11.25;100.00;-25382.72;5010766;28;19970;-79
2022/10/04 01:09:16;;;;;;;;;;;;;;;11.17;100.00;-25380.25;5013302;28;19921;-76
2022/10/04 01:11:43;;;;;;;;;;;;;;;11.13;100.00;-25379.22;5004072;28;19913;-76
2022/10/04 01:14:25;;;;;;;;;;;;;;;11.11;100.00;-25378.78;5030689;28;19918;-75
2022/10/04 01:16:50;;;;;;;;;;;;;;;11.05;100.00;-25377.00;5004859;28;19925;-75
2022/10/04 01:19:22;;;;;;;;;;;;;;;11.02;100.00;-25376.13;5007173;28;19917;-76
2022/10/04 01:21:58;;;;;;;;;;;;;;;11.00;100.00;-25375.41;4997548;28;20270;-75
2022/10/04 01:24:31;;;;;;;;;;;;;;;10.95;100.00;-25374.09;5006844;28;19963;-75
2022/10/04 01:26:57;;;;;;;;;;;;;;;10.91;100.00;-25373.06;4998364;28;19976;-81
2022/10/04 01:29:27;;;;;;;;;;;;;;;10.89;100.00;-25372.31;5027562;28;20373;-77
2022/10/04 01:31:53;;;;;;;;;;;;;;;10.87;100.00;-25371.75;5005990;28;20494;-80
2022/10/04 01:34:20;;;;;;;;;;;;;;;10.85;100.00;-25371.16;5007712;28;19924;-80
2022/10/04 01:36:47;;;;;;;;;;;;;;;10.82;100.00;-25370.28;5017070;28;19926;-84
2022/10/04 01:39:13;;;;;;;;;;;;;;;10.78;100.00;-25369.38;5018259;28;19921;-79
2022/10/04 01:41:46;;;;;;;;;;;;;;;10.74;100.00;-25368.22;5019029;28;20015;-80
2022/10/04 01:44:35;;;;;;;;;;;;;;;10.72;100.00;-25367.63;5033346;28;19917;-79
2022/10/04 01:47:03;;;;;;;;;;;;;;;10.68;100.00;-25366.47;4999658;28;19918;-83
2022/10/04 01:49:30;;;;;;;;;;;;;;;10.67;100.00;-25366.00;4998843;28;20282;-83
2022/10/04 01:52:02;;;;;;;;;;;;;;;10.60;100.00;-25364.13;4999193;28;19922;-83
2022/10/04 01:54:56;;;;;;;;;;;;;;;10.57;100.00;-25363.22;5007376;28;19987;-83
2022/10/04 01:57:23;;;;;;;;;;;;;;;10.56;100.00;-25363.09;5007626;28;20018;-83
2022/10/04 01:59:55;;;;;;;;;;;;;;;10.54;100.00;-25362.50;5003244;28;20020;-78
2022/10/04 02:02:20;;;;;;;;;;;;;;;10.57;100.00;-25363.22;4994945;28;20063;-79
2022/10/04 02:04:51;;;;;;;;;;;;;;;10.54;100.00;-25362.34;5027838;28;20016;-77
2022/10/04 02:07:16;;;;;;;;;;;;;;;10.54;100.00;-25362.34;5000431;28;19921;-75
2022/10/04 02:09:44;;;;;;;;;;;;;;;10.51;100.00;-25361.47;5016514;28;19996;-76
2022/10/04 02:12:15;;;;;;;;;;;;;;;10.53;100.00;-25362.22;4999785;28;19925;-75
2022/10/04 02:14:42;;;;;;;;;;;;;;;10.56;100.00;-25362.94;5002975;28;19925;-79
2022/10/04 02:17:10;;;;;;;;;;;;;;;10.55;100.00;-25362.78;4993291;28;20067;-74
2022/10/04 02:19:38;;;;;;;;;;;;;;;10.55;100.00;-25362.63;5007416;28;19967;-75
2022/10/04 02:22:04;;;;;;;;;;;;;;;10.49;100.00;-25361.03;5004461;28;19921;-75
2022/10/04 02:24:34;;;;;;;;;;;;;;;10.47;100.00;-25360.44;4999197;28;19921;-75
2022/10/04 02:26:59;;;;;;;;;;;;;;;10.45;100.00;-25359.72;5006662;28;19921;-76
2022/10/04 02:29:25;;;;;;;;;;;;;;;10.44;100.00;-25359.41;4996552;28;20462;-76
2022/10/04 02:34:34;;;;;;;;;;;;;;;10.38;100.00;-25357.81;5025277;28;20020;-75
2022/10/04 02:37:02;;;;;;;;;;;;;;;10.36;100.00;-25357.22;5016433;28;20015;-75
2022/10/04 02:39:31;;;;;;;;;;;;;;;10.30;100.00;-25355.44;5008133;28;20297;-78
2022/10/04 02:42:01;;;;;;;;;;;;;;;10.25;100.00;-25354.13;5013997;28;19918;-76
2022/10/04 02:44:28;;;;;;;;;;;;;;;10.27;100.00;-25354.56;5006174;28;20123;-75
2022/10/04 02:47:11;;;;;;;;;;;;;;;10.24;100.00;-25353.84;5015704;28;19917;-75
2022/10/04 02:49:47;;;;;;;;;;;;;;;10.19;100.00;-25352.50;5015072;28;20279;-75
2022/10/04 02:52:15;;;;;;;;;;;;;;;10.19;100.00;-25352.38;5015861;28;19924;-75
2022/10/04 02:55:01;;;;;;;;;;;;;;;10.18;100.00;-25352.06;5015207;28;20008;-76
2022/10/04 02:57:28;;;;;;;;;;;;;;;10.15;100.00;-25351.34;5012828;28;19925;-76
2022/10/04 03:00:01;;;;;;;;;;;;;;;10.15;100.00;-25351.34;4995979;28;19991;-76
2022/10/04 03:02:28;;;;;;;;;;;;;;;10.12;100.00;-25350.31;5005784;28;19979;-75
2022/10/04 03:04:55;;;;;;;;;;;;;;;10.13;100.00;-25350.59;5014030;28;19924;-75
2022/10/04 03:07:21;;;;;;;;;;;;;;;10.13;100.00;-25350.59;4997228;28;20017;-76
2022/10/04 03:09:47;;;;;;;;;;;;;;;10.11;100.00;-25350.03;5006877;28;19926;-74
2022/10/04 03:12:13;;;;;;;;;;;;;;;10.11;100.00;-25350.03;5014262;28;20362;-77
2022/10/04 03:14:38;;;;;;;;;;;;;;;10.06;100.00;-25348.84;4996304;28;19967;-76
2022/10/04 03:17:04;;;;;;;;;;;;;;;10.04;100.00;-25348.13;4996702;28;20008;-80
2022/10/04 03:19:31;;;;;;;;;;;;;;;10.02;100.00;-25347.53;4997965;28;20068;-82
2022/10/04 03:22:02;;;;;;;;;;;;;;;10.00;100.00;-25346.94;5009756;28;19984;-79
2022/10/04 03:24:32;;;;;;;;;;;;;;;9.94;100.00;-25345.31;5033464;28;20376;-81
2022/10/04 03:26:59;;;;;;;;;;;;;;;9.90;100.00;-25344.16;5016756;28;20353;-79
2022/10/04 03:29:26;;;;;;;;;;;;;;;9.89;100.00;-25343.84;5016585;28;19925;-78
2022/10/04 03:31:56;;;;;;;;;;;;;;;9.86;100.00;-25343.13;4996750;28;20247;-83
2022/10/04 03:34:25;;;;;;;;;;;;;;;9.83;100.00;-25342.09;5005539;28;19917;-78
2022/10/04 03:36:52;;;;;;;;;;;;;;;9.82;100.00;-25341.78;5015969;28;20023;-80
2022/10/04 03:39:29;;;;;;;;;;;;;;;9.84;100.00;-25342.38;4998943;28;19918;-82
2022/10/04 03:41:56;;;;;;;;;;;;;;;9.85;100.00;-25342.69;5009583;28;19956;-80
2022/10/04 03:44:24;;;;;;;;;;;;;;;9.84;100.00;-25342.53;4995228;28;19917;-83
2022/10/04 03:46:50;;;;;;;;;;;;;;;9.89;100.00;-25344.00;5001194;28;19924;-81
2022/10/04 03:49:30;;;;;;;;;;;;;;;9.90;100.00;-25344.16;4998323;28;20266;-79
2022/10/04 03:51:57;;;;;;;;;;;;;;;9.93;100.00;-25345.03;4997303;28;19965;-85
2022/10/04 03:54:26;;;;;;;;;;;;;;;9.95;100.00;-25345.47;4995803;28;19917;-76
2022/10/04 03:56:53;;;;;;;;;;;;;;;9.91;100.00;-25344.28;5001531;28;20023;-78
2022/10/04 03:59:19;;;;;;;;;;;;;;;9.91;100.00;-25344.28;5010633;28;20294;-83
2022/10/04 04:01:48;;;;;;;;;;;;;;;9.82;100.00;-25341.78;4996855;28;20059;-83
2022/10/04 04:04:35;;;;;;;;;;;;;;;9.76;100.00;-25340.19;4995916;28;19918;-84
2022/10/04 04:07:01;;;;;;;;;;;;;;;9.74;100.00;-25339.59;4997000;28;19925;-83
2022/10/04 04:09:32;;;;;;;;;;;;;;;9.72;100.00;-25339.00;4996851;28;19917;-83
2022/10/04 04:11:58;;;;;;;;;;;;;;;9.70;100.00;-25338.41;4994889;28;19941;-77
2022/10/04 04:14:25;;;;;;;;;;;;;;;9.70;100.00;-25338.41;4994094;28;19917;-75
2022/10/04 04:16:52;;;;;;;;;;;;;;;9.65;100.00;-25336.94;4994740;28;19997;-76
2022/10/04 04:19:18;;;;;;;;;;;;;;;9.63;100.00;-25336.50;4994699;28;19968;-78
2022/10/04 04:21:44;;;;;;;;;;;;;;;9.61;100.00;-25335.91;4995500;28;19921;-75
2022/10/04 04:24:30;;;;;;;;;;;;;;;9.61;100.00;-25335.91;4994432;28;19928;-77
2022/10/04 04:27:04;;;;;;;;;;;;;;;9.60;100.00;-25335.63;4998093;28;19921;-77
2022/10/04 04:29:32;;;;;;;;;;;;;;;9.59;100.00;-25335.19;4998769;28;19924;-76
2022/10/04 04:31:59;;;;;;;;;;;;;;;9.61;100.00;-25335.91;5004975;28;19917;-75
2022/10/04 04:34:56;;;;;;;;;;;;;;;9.61;100.00;-25335.91;5018608;28;19924;-77
2022/10/04 04:37:21;;;;;;;;;;;;;;;9.65;100.00;-25337.09;5008334;28;19921;-80
2022/10/04 04:39:53;;;;;;;;;;;;;;;9.63;100.00;-25336.34;5018968;28;20392;-77
2022/10/04 04:42:31;;;;;;;;;;;;;;;9.65;100.00;-25337.09;5018484;28;19940;-75
2022/10/04 04:45:02;;;;;;;;;;;;;;;9.63;100.00;-25336.34;5000534;28;19921;-81
2022/10/04 04:47:29;;;;;;;;;;;;;;;9.65;100.00;-25337.09;5000578;28;19913;-78
2022/10/04 04:49:56;;;;;;;;;;;;;;;9.69;100.00;-25338.13;5018053;28;19917;-80
2022/10/04 04:52:24;;;;;;;;;;;;;;;9.67;100.00;-25337.69;4999320;28;19914;-77
2022/10/04 04:54:50;;;;;;;;;;;;;;;9.67;100.00;-25337.69;5001007;28;20036;-77
2022/10/04 04:57:15;;;;;;;;;;;;;;;9.67;100.00;-25337.69;5001794;28;19956;-82
2022/10/04 04:59:44;;;;;;;;;;;;;;;9.67;100.00;-25337.53;5000844;28;19922;-83
2022/10/04 05:02:30;;;;;;;;;;;;;;;9.69;100.00;-25338.28;5012887;28;19932;-82
2022/10/04 05:05:09;;;;;;;;;;;;;;;9.67;100.00;-25337.69;5029586;28;19921;-84
2022/10/04 05:07:34;;;;;;;;;;;;;;;9.69;100.00;-25338.13;5020230;28;19948;-80
2022/10/04 05:09:59;;;;;;;;;;;;;;;9.69;100.00;-25338.28;5005811;28;19930;-82
2022/10/04 05:12:28;;;;;;;;;;;;;;;9.69;100.00;-25338.28;5038334;28;19917;-83
2022/10/04 05:14:55;;;;;;;;;;;;;;;9.70;100.00;-25338.56;5015695;28;20374;-78
2022/10/04 05:17:25;;;;;;;;;;;;;;;9.70;100.00;-25338.41;5001588;28;19925;-78
2022/10/04 05:19:52;;;;;;;;;;;;;;;9.67;100.00;-25337.53;5000907;28;19921;-82
2022/10/04 05:22:25;;;;;;;;;;;;;;;9.69;100.00;-25338.28;5018528;28;19917;-84
2022/10/04 05:24:52;;;;;;;;;;;;;;;9.67;100.00;-25337.53;5005555;28;20290;-84
2022/10/04 05:27:37;;;;;;;;;;;;;;;9.67;100.00;-25337.53;5017764;28;20596;-81
2022/10/04 05:30:06;;;;;;;;;;;;;;;9.66;100.00;-25337.25;4999677;28;19921;-82
2022/10/04 05:32:43;;;;;;;;;;;;;;;9.66;100.00;-25337.25;5001317;28;19944;-84
2022/10/04 05:35:27;;;;;;;;;;;;;;;9.63;100.00;-25336.34;5000607;28;20009;-83
2022/10/04 05:38:00;;;;;;;;;;;;;;;9.66;100.00;-25337.25;4999882;28;19921;-80
2022/10/04 05:40:25;;;;;;;;;;;;;;;9.64;100.00;-25336.81;5009041;28;19976;-83
2022/10/04 05:42:51;;;;;;;;;;;;;;;9.61;100.00;-25335.91;5006084;28;19929;-84
2022/10/04 05:45:18;;;;;;;;;;;;;;;9.58;100.00;-25334.88;5021566;28;19924;-83
2022/10/04 05:47:48;;;;;;;;;;;;;;;9.55;100.00;-25334.16;5003232;28;19917;-78
2022/10/04 05:50:34;;;;;;;;;;;;;;;9.55;100.00;-25334.00;5001281;28;19924;-83
2022/10/04 05:55:58;;;;;;;;;;;;;;;9.50;100.00;-25332.69;5017125;28;19929;-82
2022/10/04 05:58:33;;;;;;;;;;;;;;;9.46;100.00;-25331.50;4998181;28;20378;-82
2022/10/04 06:01:17;;;;;;;;;;;;;;;9.42;100.00;-25330.47;5000712;28;19921;-78
2022/10/04 06:04:09;;;;;;;;;;;;;;;9.41;100.00;-25330.03;4979228;28;19993;-78
2022/10/04 06:06:53;;;;;;;;;;;;;;;9.39;100.00;-25329.47;4980772;28;19957;-78
2022/10/04 06:09:24;;;;;;;;;;;;;;;9.34;100.00;-25328.28;4995798;28;19965;-79
2022/10/04 06:12:08;;;;;;;;;;;;;;;9.30;100.00;-25327.09;5000926;28;19976;-79
2022/10/04 06:14:36;;;;;;;;;;;;;;;9.28;100.00;-25326.50;5016206;28;19932;-80
2022/10/04 06:17:17;;;;;;;;;;;;;;;9.29;100.00;-25326.81;5003844;28;19928;-78
2022/10/04 06:19:42;;;;;;;;;;;;;;;9.32;100.00;-25327.53;4993540;28;19932;-77
2022/10/04 06:22:16;;;;;;;;;;;;;;;9.29;100.00;-25326.81;4997399;28;19913;-75
2022/10/04 06:24:44;;;;;;;;;;;;;;;9.31;100.00;-25327.25;4993889;28;19918;-79
2022/10/04 06:27:09;;;;;;;;;;;;;;;9.29;100.00;-25326.81;5000299;28;19914;-80
2022/10/04 06:29:39;;;;;;;;;;;;;;;9.28;100.00;-25326.50;5017230;28;19957;-79
2022/10/04 06:32:25;;;;;;;;;;;;;;;9.29;100.00;-25326.66;5016982;28;20358;-77
2022/10/04 06:34:58;;;;;;;;;;;;;;;9.28;100.00;-25326.38;5034297;28;19928;-76
2022/10/04 06:37:26;;;;;;;;;;;;;;;9.25;100.00;-25325.50;5015658;28;19921;-77
2022/10/04 06:39:59;;;;;;;;;;;;;;;9.28;100.00;-25326.38;5016498;28;19917;-77
2022/10/04 06:42:26;;;;;;;;;;;;;;;9.33;100.00;-25327.97;5016715;28;19967;-77
2022/10/04 06:45:09;;;;;;;;;;;;;;;9.39;100.00;-25329.47;5004038;28;19921;-77
2022/10/04 06:47:53;;;;;;;;;;;;;;;9.59;100.00;-25335.34;4996528;28;20275;-77
2022/10/04 06:50:27;;;;;;;;;;;;;;;9.93;100.00;-25345.03;4996337;28;20337;-78
2022/10/04 06:53:15;;;;;;;;;;;;;;;10.03;100.00;-25347.97;4996298;28;19925;-78
2022/10/04 06:55:46;;;;;;;;;;;;;;;10.02;100.00;-25347.53;5029635;28;19968;-77
2022/10/04 06:58:24;;;;;;;;;;;;;;;10.09;100.00;-25349.44;4996576;28;20303;-76
2022/10/04 07:01:01;;;;;;;;;;;;;;;10.16;100.00;-25351.47;4996322;28;19913;-76
2022/10/04 07:03:37;;;;;;;;;;;;;;;10.26;100.00;-25354.41;4996048;28;19952;-76
2022/10/04 07:06:04;;;;;;;;;;;;;;;10.31;100.00;-25355.88;4995998;28;19913;-75
2022/10/04 07:08:32;;;;;;;;;;;;;;;10.47;100.00;-25360.28;5014833;28;20012;-78
2022/10/04 07:11:17;;;;;;;;;;;;;;;10.59;100.00;-25363.81;4997449;28;20382;-76
2022/10/04 07:13:42;;;;;;;;;;;;;;;10.85;100.00;-25371.28;5030351;28;19922;-76
2022/10/04 07:16:26;;;;;;;;;;;;;;;10.93;100.00;-25373.50;4995986;28;19977;-77
2022/10/04 07:19:08;;;;;;;;;;;;;;;10.99;100.00;-25375.25;5011446;28;19964;-76
2022/10/04 07:21:41;;;;;;;;;;;;;;;10.98;100.00;-25374.97;5019176;28;19918;-78
2022/10/04 07:24:10;;;;;;;;;;;;;;;11.06;100.00;-25377.16;4999243;28;20004;-77
2022/10/04 07:26:44;;;;;;;;;;;;;;;11.21;100.00;-25381.41;4997614;28;20522;-75
2022/10/04 07:29:30;;;;;;;;;;;;;;;11.36;100.00;-25385.81;4997809;28;19980;-78
2022/10/04 07:32:06;;;;;;;;;;;;;;;11.48;100.00;-25389.16;4998905;28;19917;-78
2022/10/04 07:34:37;;;;;;;;;;;;;;;11.60;100.00;-25392.53;4998342;28;19925;-78
2022/10/04 07:37:11;;;;;;;;;;;;;;;11.66;100.00;-25394.44;4998231;28;19929;-79
2022/10/04 07:39:58;;;;;;;;;;;;;;;11.77;100.00;-25397.38;5000081;28;19921;-79
2022/10/04 07:42:28;;;;;;;;;;;;;;;11.83;100.00;-25399.13;4999708;28;19917;-81
2022/10/04 07:45:04;;;;;;;;;;;;;;;11.97;100.00;-25403.22;5000333;28;20353;-81
2022/10/04 07:47:30;;;;;;;;;;;;;;;12.58;100.00;-25420.50;4999351;28;19921;-79
2022/10/04 07:49:57;;;;;;;;;;;;;;;13.21;100.00;-25438.47;5000003;28;19996;-81
2022/10/04 07:52:28;;;;;;;;;;;;;;;13.56;100.00;-25448.25;4999274;28;19917;-78
2022/10/04 07:55:00;;;;;;;;;;;;;;;14.33;100.00;-25470.13;4998216;28;19918;-78
2022/10/04 07:57:46;;;;;;;;;;;;;;;14.74;100.00;-20219.75;4998766;28;19924;-77
2022/10/04 08:00:11;;;;;;;;;;;;;;;14.51;100.00;-6707.84;4979298;28;19952;-79
2022/10/04 08:02:42;;;;;;;;;;;;;;;14.43;100.00;6845.22;4998715;28;19924;-76
2022/10/04 08:05:07;;;;;;;;;;;;;;;14.53;100.00;16796.53;4999958;28;19987;-76
2022/10/04 08:07:43;;;;;;;;;;;;;;;14.55;100.00;27437.66;4999333;28;20306;-77
2022/10/04 08:10:22;;;;;;;;;;;;;;;14.20;100.00;38749.28;5000927;28;19947;-76
2022/10/04 08:12:50;;;;;;;;;;;;;;;14.00;100.00;44076.84;5000944;28;19917;-81
2022/10/04 08:15:16;;;;;;;;;;;;;;;13.96;100.00;44073.44;5001703;28;19917;-82
2022/10/04 08:18:01;;;;;;;;;;;;;;;14.06;100.00;42076.81;5034759;28;19917;-83
2022/10/04 08:20:26;;;;;;;;;;;;;;;14.26;100.00;42427.16;5003942;28;19953;-82
2022/10/04 08:23:01;;;;;;;;;;;;;;;14.52;100.00;47130.03;5036813;28;19917;-80
2022/10/04 08:25:35;;;;;;;;;;;;;;;14.73;100.00;54519.13;5003213;28;19924;-84
2022/10/04 08:31:09;;;;;;;;;;;;;;;15.03;100.00;78780.81;5026693;28;19965;-78
2022/10/04 08:33:35;;;;;;;;;;;;;;;15.01;100.00;92302.44;5010884;28;19925;-82
2022/10/04 08:36:03;;;;;;;;;;;;;;;15.12;100.00;102155.53;5010720;28;19917;-82
2022/10/04 08:38:31;;;;;;;;;;;;;;;15.29;100.00;103545.25;5011992;28;19909;-77
2022/10/04 08:40:59;;;;;;;;;;;;;;;15.16;100.00;113385.16;5010805;28;19947;-83
2022/10/04 08:43:28;;;;;;;;;;;;;;;14.67;100.00;116355.00;5006022;28;19917;-78
2022/10/04 08:46:12;;;;;;;;;;;;;;;14.62;100.00;99354.38;5000944;28;20374;-76
2022/10/04 08:48:56;;;;;;;;;;;;;;;14.38;100.00;90172.56;5034368;28;19917;-75
2022/10/04 08:51:37;;;;;;;;;;;;;;;14.14;100.00;77310.03;5001615;28;19924;-75
2022/10/04 08:54:22;;;;;;;;;;;;;;;14.18;100.00;63858.34;5001923;28;20010;-76
2022/10/04 08:56:57;;;;;;;;;;;;;;;14.22;100.00;55808.84;5035118;28;19943;-76
2022/10/04 08:59:41;;;;;;;;;;;;;;;14.19;100.00;48104.44;4999394;28;19924;-76
2022/10/04 09:02:13;;;;;;;;;;;;;;;14.32;100.00;44103.03;5033108;28;19917;-76
2022/10/04 09:04:44;;;;;;;;;;;;;;;14.43;100.00;43108.63;4999056;28;19949;-75
2022/10/04 09:07:33;;;;;;;;;;;;;;;14.51;100.00;44787.47;4995257;28;20024;-76
2022/10/04 09:09:59;;;;;;;;;;;;;;;14.61;100.00;45464.63;4997344;28;20229;-79
2022/10/04 09:12:49;;;;;;;;;;;;;;;14.54;100.00;45793.03;4997427;28;19960;-76
2022/10/04 09:15:21;;;;;;;;;;;;;;;14.62;100.00;45130.53;4998956;28;19918;-81
2022/10/04 09:17:46;;;;;;;;;;;;;;;14.69;100.00;44802.47;4998843;28;19925;-78
2022/10/04 09:20:30;;;;;;;;;;;;;;;14.54;100.00;46797.19;4998654;28;19917;-77
2022/10/04 09:22:58;;;;;;;;;;;;;;;14.50;100.00;48801.69;4999051;28;19917;-77
2022/10/04 09:25:27;;;;;;;;;;;;;;;14.53;100.00;51818.13;4998654;28;19917;-77
2022/10/04 09:28:16;;;;;;;;;;;;;;;14.66;100.00;53841.91;4998153;28;19993;-77
2022/10/04 09:30:51;;;;;;;;;;;;;;;14.80;100.00;56538.66;4998418;28;19918;-77
2022/10/04 09:33:32;;;;;;;;;;;;;;;14.80;100.00;58553.13;4997611;28;19922;-76
2022/10/04 09:35:57;;;;;;;;;;;;;;;14.85;100.00;62926.00;4998301;28;20362;-78
2022/10/04 09:38:22;;;;;;;;;;;;;;;15.02;100.00;62272.66;4997377;28;20571;-77
2022/10/04 09:40:53;;;;;;;;;;;;;;;15.08;100.00;65979.53;4997501;28;19921;-77
2022/10/04 09:43:32;;;;;;;;;;;;;;;15.19;100.00;71718.19;4997607;28;20081;-77
2022/10/04 09:45:57;;;;;;;;;;;;;;;15.26;100.00;78474.38;5015379;28;19925;-79
2022/10/04 09:48:29;;;;;;;;;;;;;;;15.54;100.00;83921.31;4996223;28;19921;-79
2022/10/04 09:51:13;;;;;;;;;;;;;;;15.33;100.00;96421.88;4997594;28;20360;-81
2022/10/04 09:53:58;;;;;;;;;;;;;;;15.15;100.00;103180.81;5030576;28;19918;-78
2022/10/04 09:56:25;;;;;;;;;;;;;;;15.06;100.00;101128.00;5030625;28;20303;-80
2022/10/04 09:59:03;;;;;;;;;;;;;;;14.95;100.00;95002.78;4998250;28;19921;-79
2022/10/04 10:01:44;;;;;;;;;;;;;;;14.71;100.00;87856.22;4997344;28;19961;-79
2022/10/04 10:04:27;;;;;;;;;;;;;;;14.67;100.00;83457.28;4997696;28;19921;-78
2022/10/04 10:07:11;;;;;;;;;;;;;;;14.87;100.00;78758.16;4998139;28;19917;-77
2022/10/04 10:15:54;;;;;;;;;;;;;;;15.45;100.00;94068.16;5035904;28;19924;-77
2022/10/04 10:18:32;;;;;;;;;;;;;;;15.64;100.00;101568.09;5016028;28;19921;-77
2022/10/04 10:21:19;;;;;;;;;;;;;;;15.72;100.00;115881.63;5016397;28;19920;-77
2022/10/04 10:23:48;;;;;;;;;;;;;;;15.82;100.00;125804.00;5014591;28;19963;-77
2022/10/04 10:26:16;;;;;;;;;;;;;;;16.08;100.00;134763.81;5017958;28;19913;-77
2022/10/04 10:29:01;;;;;;;;;;;;;;;16.36;100.00;146847.53;5016890;28;20268;-77
2022/10/04 10:31:29;;;;;;;;;;;;;;;16.50;100.00;146883.28;5049169;28;20304;-79
2022/10/04 10:33:58;;;;;;;;;;;;;;;16.49;100.00;146879.47;5017423;28;20012;-76
2022/10/04 10:36:50;;;;;;;;;;;;;;;16.37;100.00;146848.81;5035363;28;19929;-81
2022/10/04 10:39:32;;;;;;;;;;;;;;;16.54;100.00;146890.97;5017787;28;19921;-81
2022/10/04 10:42:15;;;;;;;;;;;;;;;16.65;100.00;146920.31;5020304;28;19928;-80
2022/10/04 10:44:49;;;;;;;;;;;;;;;16.73;100.00;146939.47;5020879;28;19921;-81
2022/10/04 10:47:25;;;;;;;;;;;;;;;16.78;100.00;146952.28;5018906;28;19940;-84
2022/10/04 10:50:09;;;;;;;;;;;;;;;16.79;100.00;146954.81;5021095;28;19921;-82
2022/10/04 10:52:53;;;;;;;;;;;;;;;16.79;100.00;146953.56;5037538;28;19917;-84
2022/10/04 10:55:31;;;;;;;;;;;;;;;16.94;100.00;146990.69;5038385;28;20376;-83
2022/10/04 10:58:05;;;;;;;;;;;;;;;16.95;100.00;146993.22;5022615;28;19984;-80
2022/10/04 11:00:34;;;;;;;;;;;;;;;16.94;100.00;146990.69;5021358;28;19921;-82
2022/10/04 11:03:04;;;;;;;;;;;;;;;16.89;100.00;146977.88;5018309;28;19917;-78
2022/10/04 11:05:48;;;;;;;;;;;;;;;17.00;100.00;147006.03;5017937;28;20004;-80
2022/10/04 11:08:35;;;;;;;;;;;;;;;17.22;100.00;147062.22;5036225;28;19940;-77
2022/10/04 11:11:20;;;;;;;;;;;;;;;17.31;100.00;147082.66;5019606;28;20021;-78
2022/10/04 11:14:10;;;;;;;;;;;;;;;17.40;100.00;147107.00;5017959;28;19917;-79
2022/10/04 11:16:39;;;;;;;;;;;;;;;17.59;100.00;147154.28;5035029;28;19976;-77
2022/10/04 11:19:07;;;;;;;;;;;;;;;17.55;100.00;147144.03;5018114;28;20329;-77
2022/10/04 11:21:33;;;;;;;;;;;;;;;17.56;100.00;147145.34;5018137;28;19921;-79
2022/10/04 11:24:18;;;;;;;;;;;;;;;17.27;100.00;147072.47;5017253;28;19972;-77
2022/10/04 11:26:52;;;;;;;;;;;;;;;17.09;100.00;147029.03;5016541;28;19917;-78
2022/10/04 11:29:21;;;;;;;;;;;;;;;17.08;100.00;147025.19;5015664;28;19940;-77
2022/10/04 11:31:50;;;;;;;;;;;;;;;17.04;100.00;147017.53;5016238;28;19921;-78
2022/10/04 11:34:36;;;;;;;;;;;;;;;16.92;100.00;146986.84;5015214;28;19984;-77
2022/10/04 11:37:04;;;;;;;;;;;;;;;16.90;100.00;146980.44;5031438;28;19917;-78
2022/10/04 11:39:29;;;;;;;;;;;;;;;16.93;100.00;146988.09;4995477;28;19928;-79
2022/10/04 11:41:59;;;;;;;;;;;;;;;17.14;100.00;147040.53;4995116;28;19922;-77
2022/10/04 11:44:33;;;;;;;;;;;;;;;17.02;100.00;147011.13;4995617;28;19921;-78
2022/10/04 11:47:17;;;;;;;;;;;;;;;16.98;100.00;147000.88;4995560;28;19948;-77
2022/10/04 11:49:55;;;;;;;;;;;;;;;16.91;100.00;146983.00;4995681;28;19923;-77
2022/10/04 11:52:21;;;;;;;;;;;;;;;16.86;100.00;146972.78;4995249;28;19949;-77
2022/10/04 11:55:07;;;;;;;;;;;;;;;16.83;100.00;146965.06;4994958;28;19964;-78
2022/10/04 11:57:41;;;;;;;;;;;;;;;16.73;100.00;146938.22;4994833;28;19941;-78
2022/10/04 12:00:21;;;;;;;;;;;;;;;16.92;100.00;146985.53;5013358;28;19972;-77
2022/10/04 12:03:09;;;;;;;;;;;;;;;17.07;100.00;147023.88;4994598;28;19918;-78
2022/10/04 12:05:54;;;;;;;;;;;;;;;17.14;100.00;147041.78;4994965;28;19923;-78
2022/10/04 12:08:22;;;;;;;;;;;;;;;17.13;100.00;147039.22;4994241;28;20363;-77
2022/10/04 12:11:06;;;;;;;;;;;;;;;17.03;100.00;147014.94;4994603;28;20289;-80
2022/10/04 12:13:46;;;;;;;;;;;;;;;17.17;100.00;147048.19;4995012;28;20852;-76
2022/10/04 12:16:11;;;;;;;;;;;;;;;17.28;100.00;147075.03;4994979;28;19996;-76
2022/10/04 12:18:55;;;;;;;;;;;;;;;17.21;100.00;147059.72;4994886;28;20004;-77
2022/10/04 12:21:39;;;;;;;;;;;;;;;17.22;100.00;147062.22;5013007;28;19922;-77
2022/10/04 12:24:26;;;;;;;;;;;;;;;17.11;100.00;147032.84;4995135;28;20004;-79
2022/10/04 12:26:54;;;;;;;;;;;;;;;17.14;100.00;147041.78;4995928;28;19924;-83
2022/10/04 12:29:39;;;;;;;;;;;;;;;17.27;100.00;147072.47;4996635;28;19928;-80
2022/10/04 12:32:26;;;;;;;;;;;;;;;17.35;100.00;147092.91;4997246;28;19917;-80
2022/10/04 12:35:03;;;;;;;;;;;;;;;17.29;100.00;147077.56;4996428;28;20521;-80
2022/10/04 12:37:41;;;;;;;;;;;;;;;17.25;100.00;147067.38;4996632;28;19917;-81
2022/10/04 12:40:07;;;;;;;;;;;;;;;17.20;100.00;147057.13;4998011;28;19918;-82
2022/10/04 12:42:52;;;;;;;;;;;;;;;17.18;100.00;147050.72;4996844;28;20016;-81
2022/10/04 12:45:18;;;;;;;;;;;;;;;17.21;100.00;147059.72;5000295;28;19997;-83
2022/10/04 12:48:03;;;;;;;;;;;;;;;17.16;100.00;147045.63;5039070;28;20023;-83
2022/10/04 12:50:46;;;;;;;;;;;;;;;16.99;100.00;147004.72;5006725;28;20325;-84
2022/10/04 12:53:31;;;;;;;;;;;;;;;17.06;100.00;147021.34;5006588;28;19964;-83
2022/10/04 12:55:56;;;;;;;;;;;;;;;17.19;100.00;147054.56;5008199;28;19924;-83
2022/10/04 12:58:29;;;;;;;;;;;;;;;17.32;100.00;147086.50;5026212;28;19917;-83
2022/10/04 13:00:58;;;;;;;;;;;;;;;17.36;100.00;147096.75;5008138;28;19928;-84
2022/10/04 13:03:39;;;;;;;;;;;;;;;17.52;100.00;147135.09;5007965;28;19918;-85
2022/10/04 13:06:25;;;;;;;;;;;;;;;17.36;100.00;147095.47;5040722;28;19984;-85
2022/10/04 13:08:50;;;;;;;;;;;;;;;17.31;100.00;147082.66;5007357;28;20012;-84
2022/10/04 13:11:40;;;;;;;;;;;;;;;17.37;100.00;147098.00;5037828;28;20420;-85
2022/10/04 13:14:24;;;;;;;;;;;;;;;17.34;100.00;147091.66;5006643;28;19948;-83
2022/10/04 13:16:52;;;;;;;;;;;;;;;17.51;100.00;147133.84;5006011;28;19964;-79